createdAt,value
2023-04-15T00:02:24.169Z,97268.63
2023-04-15T00:04:54.833Z,97268.88
2023-04-15T00:07:25.294Z,97261.53
2023-04-15T00:09:57.882Z,97272.09
2023-04-15T00:12:28.505Z,97270.63
2023-04-15T00:15:01.683Z,97267.50
2023-04-15T00:17:32.405Z,97270.31
2023-04-15T00:20:03.828Z,97262.88
2023-04-15T00:22:34.589Z,97273.16
2023-04-15T00:25:05.078Z,97266.56
2023-04-15T00:27:35.593Z,97271.25
2023-04-15T00:30:10.795Z,97270.59
2023-04-15T00:32:42.612Z,97273.34
2023-04-15T00:35:13.160Z,97267.00
2023-04-15T00:37:45.953Z,97264.69
2023-04-15T00:40:20.804Z,97259.97
2023-04-15T00:42:51.570Z,97268.13
2023-04-15T00:45:24.838Z,97253.78
2023-04-15T00:47:58.702Z,97259.31
2023-04-15T00:50:29.166Z,97256.34
2023-04-15T00:52:59.787Z,97259.91
2023-04-15T00:55:30.273Z,97260.81
2023-04-15T00:58:01.172Z,97265.84
2023-04-15T01:00:34.790Z,97257.34
2023-04-15T01:03:05.535Z,97265.97
2023-04-15T01:05:37.059Z,97275.91
2023-04-15T01:08:08.024Z,97268.34
2023-04-15T01:10:38.991Z,97274.78
2023-04-15T01:13:09.690Z,97272.44
2023-04-15T01:15:43.753Z,97271.88
2023-04-15T01:18:14.831Z,97270.28
2023-04-15T01:20:45.360Z,97267.97
2023-04-15T01:23:17.178Z,97281.81
2023-04-15T01:25:50.861Z,97270.97
2023-04-15T01:28:26.161Z,97270.97
2023-04-15T01:31:10.985Z,97272.63
2023-04-15T01:33:42.635Z,97266.91
2023-04-15T01:36:32.194Z,97261.22
2023-04-15T01:39:02.889Z,97263.19
2023-04-15T01:41:36.007Z,97266.91
2023-04-15T01:44:08.409Z,97267.16
2023-04-15T01:46:40.833Z,97273.94
2023-04-15T01:49:12.800Z,97268.97
2023-04-15T01:51:44.431Z,97263.16
2023-04-15T01:54:17.990Z,97269.31
2023-04-15T01:56:52.299Z,97262.75
2023-04-15T01:59:24.065Z,97257.88
2023-04-15T02:01:56.469Z,97267.44
2023-04-15T02:04:28.215Z,97263.13
2023-04-15T02:07:03.122Z,97261.72
2023-04-15T02:09:34.528Z,97254.47
2023-04-15T02:12:11.890Z,97251.19
2023-04-15T02:14:43.702Z,97255.78
2023-04-15T02:17:15.818Z,97255.50
2023-04-15T02:19:48.298Z,97254.97
2023-04-15T02:22:20.653Z,97251.50
2023-04-15T02:24:52.247Z,97252.25
2023-04-15T02:27:26.593Z,97250.47
2023-04-15T02:29:58.333Z,97254.06
2023-04-15T02:32:29.941Z,97256.13
2023-04-15T02:35:07.085Z,97246.69
2023-04-15T02:37:45.935Z,97249.50
2023-04-15T02:40:17.925Z,97247.81
2023-04-15T02:42:53.144Z,97250.44
2023-04-15T02:45:27.771Z,97248.66
2023-04-15T02:47:59.479Z,97245.06
2023-04-15T02:50:31.953Z,97250.00
2023-04-15T02:53:04.545Z,97247.53
2023-04-15T02:55:36.684Z,97246.84
2023-04-15T02:58:11.252Z,97238.72
2023-04-15T03:00:42.951Z,97244.88
2023-04-15T03:03:15.516Z,97249.22
2023-04-15T03:05:48.033Z,97250.72
2023-04-15T03:08:19.696Z,97248.94
2023-04-15T03:10:52.655Z,97247.16
2023-04-15T03:13:26.999Z,97247.91
2023-04-15T03:15:59.680Z,97248.56
2023-04-15T03:18:32.317Z,97244.38
2023-04-15T03:21:07.563Z,97247.06
2023-04-15T03:23:41.718Z,97247.91
2023-04-15T03:26:13.502Z,97238.56
2023-04-15T03:28:48.143Z,97238.09
2023-04-15T03:31:20.867Z,97235.69
2023-04-15T03:33:52.949Z,97244.28
2023-04-15T03:36:24.527Z,97246.88
2023-04-15T03:38:56.452Z,97237.66
2023-04-15T03:41:28.608Z,97237.66
2023-04-15T03:44:02.961Z,97232.81
2023-04-15T03:46:34.674Z,97241.63
2023-04-15T03:49:06.554Z,97237.59
2023-04-15T03:51:38.184Z,97236.84
2023-04-15T03:54:09.882Z,97241.97
2023-04-15T03:56:41.601Z,97245.53
2023-04-15T03:59:15.924Z,97246.94
2023-04-15T04:01:47.652Z,97245.72
2023-04-15T04:04:19.658Z,97248.19
2023-04-15T04:06:51.290Z,97253.31
2023-04-15T04:09:22.995Z,97257.59
2023-04-15T04:11:54.686Z,97260.38
2023-04-15T04:14:29.998Z,97254.00
2023-04-15T04:17:01.901Z,97258.41
2023-04-15T04:19:33.901Z,97260.22
2023-04-15T04:22:05.655Z,97251.09
2023-04-15T04:24:37.418Z,97248.03
2023-04-15T04:27:09.245Z,97247.22
2023-04-15T04:29:43.661Z,97259.09
2023-04-15T04:32:15.830Z,97262.50
2023-04-15T04:34:48.368Z,97263.25
2023-04-15T04:37:20.007Z,97267.63
2023-04-15T04:39:51.782Z,97273.72
2023-04-15T04:42:23.361Z,97271.38
2023-04-15T04:44:57.656Z,97276.78
2023-04-15T04:47:30.298Z,97273.44
2023-04-15T04:50:01.910Z,97269.16
2023-04-15T04:52:33.523Z,97266.88
2023-04-15T04:55:05.252Z,97267.63
2023-04-15T04:57:37.888Z,97273.88
2023-04-15T05:00:14.311Z,97276.44
2023-04-15T05:02:46.284Z,97272.44
2023-04-15T05:05:18.046Z,97280.50
2023-04-15T05:07:50.748Z,97273.66
2023-04-15T05:10:22.353Z,97274.81
2023-04-15T05:12:54.055Z,97275.84
2023-04-15T05:15:28.560Z,97280.28
2023-04-15T05:18:00.314Z,97274.44
2023-04-15T05:20:32.169Z,97278.81
2023-04-15T05:23:03.829Z,97274.03
2023-04-15T05:25:35.531Z,97283.72
2023-04-15T05:28:07.182Z,97272.81
2023-04-15T05:30:42.238Z,97284.09
2023-04-15T05:33:13.979Z,97275.78
2023-04-15T05:35:45.713Z,97285.16
2023-04-15T05:38:17.308Z,97288.53
2023-04-15T05:40:48.899Z,97282.56
2023-04-15T05:43:22.730Z,97283.31
2023-04-15T05:45:57.271Z,97282.56
2023-04-15T05:48:29.075Z,97280.13
2023-04-15T05:51:01.019Z,97286.25
2023-04-15T05:53:32.879Z,97295.38
2023-04-15T05:56:04.439Z,97288.34
2023-04-15T05:58:36.285Z,97300.09
2023-04-15T06:01:10.855Z,97294.06
2023-04-15T06:03:42.816Z,97292.31
2023-04-15T06:06:14.741Z,97293.84
2023-04-15T06:08:46.438Z,97301.16
2023-04-15T06:11:18.519Z,97299.38
2023-04-15T06:13:50.280Z,97293.19
2023-04-15T06:16:24.555Z,97298.84
2023-04-15T06:18:56.295Z,97297.00
2023-04-15T06:21:28.111Z,97296.66
2023-04-15T06:23:59.840Z,97303.91
2023-04-15T06:26:31.830Z,97291.41
2023-04-15T06:29:04.001Z,97303.00
2023-04-15T06:31:38.412Z,97303.44
2023-04-15T06:34:10.069Z,97311.53
2023-04-15T06:36:41.634Z,97311.22
2023-04-15T06:39:13.707Z,97312.53
2023-04-15T06:41:45.504Z,97304.31
2023-04-15T06:44:17.396Z,97304.19
2023-04-15T06:46:51.662Z,97310.50
2023-04-15T06:49:23.268Z,97313.72
2023-04-15T06:51:54.938Z,97309.97
2023-04-15T06:54:26.744Z,97313.97
2023-04-15T06:56:58.462Z,97318.75
2023-04-15T06:59:30.169Z,97319.34
2023-04-15T07:02:05.151Z,97318.31
2023-04-15T07:04:36.593Z,97315.47
2023-04-15T07:07:08.297Z,97318.63
2023-04-15T07:09:39.901Z,97310.09
2023-04-15T07:12:11.753Z,97308.25
2023-04-15T07:14:43.580Z,97307.31
2023-04-15T07:17:18.014Z,97309.78
2023-04-15T07:19:49.691Z,97305.34
2023-04-15T07:22:21.598Z,97305.34
2023-04-15T07:24:53.163Z,97301.00
2023-04-15T07:27:25.020Z,97302.50
2023-04-15T07:29:56.607Z,97298.94
2023-04-15T07:32:31.278Z,97308.75
2023-04-15T07:35:03.906Z,97300.16
2023-04-15T07:37:35.598Z,97301.44
2023-04-15T07:40:09.708Z,97313.88
2023-04-15T07:42:43.690Z,97309.88
2023-04-15T07:45:15.691Z,97313.75
2023-04-15T07:47:51.133Z,97303.13
2023-04-15T07:50:23.029Z,97303.66
2023-04-15T07:52:57.545Z,97302.53
2023-04-15T07:55:30.842Z,97308.09
2023-04-15T07:58:02.446Z,97305.81
2023-04-15T08:00:34.120Z,97301.47
2023-04-15T08:03:08.693Z,97300.38
2023-04-15T08:05:40.451Z,97296.44
2023-04-15T08:08:12.529Z,97294.88
2023-04-15T08:10:44.174Z,97300.00
2023-04-15T08:13:16.387Z,97299.38
2023-04-15T08:15:48.158Z,97291.56
2023-04-15T08:18:22.376Z,97289.41
2023-04-15T08:20:53.978Z,97297.59
2023-04-15T08:23:25.802Z,97300.72
2023-04-15T08:25:57.852Z,97300.22
2023-04-15T08:28:29.438Z,97299.69
2023-04-15T08:31:01.140Z,97300.66
2023-04-15T08:33:35.387Z,97293.72
2023-04-15T08:36:07.890Z,97295.31
2023-04-15T08:38:39.834Z,97292.50
2023-04-15T08:41:24.209Z,97289.97
2023-04-15T08:44:00.692Z,97292.97
2023-04-15T08:46:34.944Z,97294.16
2023-04-15T08:49:15.260Z,97291.69
2023-04-15T08:51:47.025Z,97293.81
2023-04-15T08:54:18.764Z,97293.56
2023-04-15T08:56:51.597Z,97295.78
2023-04-15T08:59:24.067Z,97293.91
2023-04-15T09:01:56.822Z,97283.91
2023-04-15T09:04:31.683Z,97296.28
2023-04-15T09:07:04.947Z,97295.34
2023-04-15T09:09:37.679Z,97290.69
2023-04-15T09:12:11.575Z,97293.78
2023-04-15T09:14:44.919Z,97291.75
2023-04-15T09:17:16.880Z,97299.41
2023-04-15T09:19:51.417Z,97296.75
2023-04-15T09:22:24.499Z,97308.00
2023-04-15T09:24:56.072Z,97309.28
2023-04-15T09:27:27.844Z,97305.75
2023-04-15T09:29:59.325Z,97308.34
2023-04-15T09:32:31.070Z,97308.56
2023-04-15T09:35:15.753Z,97306.81
2023-04-15T09:37:47.641Z,97303.88
2023-04-15T09:40:34.364Z,97307.81
2023-04-15T09:43:07.285Z,97307.81
2023-04-15T09:45:41.418Z,97318.63
2023-04-15T09:48:21.809Z,97311.88
2023-04-15T09:50:57.982Z,97315.00
2023-04-15T09:53:31.714Z,97318.69
2023-04-15T09:56:04.447Z,97314.16
2023-04-15T09:58:39.018Z,97316.38
2023-04-15T10:01:11.820Z,97322.97
2023-04-15T10:03:45.468Z,97323.06
2023-04-15T10:06:20.156Z,97325.00
2023-04-15T10:08:52.209Z,97326.22
2023-04-15T10:11:25.606Z,97318.16
2023-04-15T10:14:00.089Z,97325.56
2023-04-15T10:16:35.844Z,97319.72
2023-04-15T10:19:09.690Z,97325.69
2023-04-15T10:21:45.281Z,97323.31
2023-04-15T10:24:19.493Z,97325.41
2023-04-15T10:26:51.592Z,97322.66
2023-04-15T10:29:23.961Z,97325.47
2023-04-15T10:31:56.607Z,97330.34
2023-04-15T10:34:29.019Z,97325.50
2023-04-15T10:37:06.874Z,97329.19
2023-04-15T10:39:46.819Z,97333.44
2023-04-15T10:42:20.325Z,97333.44
2023-04-15T10:44:54.628Z,97330.41
2023-04-15T10:47:26.280Z,97335.22
2023-04-15T10:50:02.657Z,97341.81
2023-04-15T10:52:37.333Z,97340.53
2023-04-15T10:55:18.188Z,97348.31
2023-04-15T10:57:49.875Z,97343.63
2023-04-15T11:00:24.580Z,97343.38
2023-04-15T11:02:58.661Z,97342.72
2023-04-15T11:05:56.202Z,97326.91
2023-04-15T11:09:06.086Z,97337.97
2023-04-15T11:12:09.044Z,97335.75
2023-04-15T11:14:44.572Z,97327.13
2023-04-15T11:17:16.263Z,97325.69
2023-04-15T11:19:47.967Z,97327.84
2023-04-15T11:22:19.700Z,97324.75
2023-04-15T11:24:54.047Z,97330.53
2023-04-15T11:27:26.403Z,97337.03
2023-04-15T11:29:58.075Z,97329.00
2023-04-15T11:32:32.654Z,97339.03
2023-04-15T11:35:04.527Z,97329.25
2023-04-15T11:37:36.277Z,97338.19
2023-04-15T11:40:13.024Z,97331.84
2023-04-15T11:42:49.448Z,97335.84
2023-04-15T11:45:21.844Z,97345.75
2023-04-15T11:47:53.575Z,97353.31
2023-04-15T11:50:26.798Z,97352.44
2023-04-15T11:52:58.355Z,97353.41
2023-04-15T11:55:31.936Z,97362.25
2023-04-15T11:58:16.818Z,97352.56
2023-04-15T12:00:52.749Z,97357.28
2023-04-15T12:03:27.790Z,97359.16
2023-04-15T12:06:19.673Z,97363.84
2023-04-15T12:09:07.031Z,97366.22
2023-04-15T12:11:53.107Z,97363.41
2023-04-15T12:14:28.654Z,97368.38
2023-04-15T12:17:02.297Z,97379.66
2023-04-15T12:19:35.106Z,97384.63
2023-04-15T12:22:07.974Z,97393.00
2023-04-15T12:24:41.245Z,97403.13
2023-04-15T12:27:19.577Z,97419.59
2023-04-15T12:29:50.033Z,97426.50
2023-04-15T12:32:22.193Z,97461.50
2023-04-15T12:34:55.467Z,97463.03
2023-04-15T12:37:26.460Z,97481.69
2023-04-15T12:39:56.920Z,97497.19
2023-04-15T12:42:30.340Z,97499.66
2023-04-15T12:45:00.657Z,97503.91
2023-04-15T12:47:31.194Z,97482.72
2023-04-15T12:50:01.680Z,97493.25
2023-04-15T12:52:32.071Z,97482.72
2023-04-15T12:55:02.553Z,97486.75
2023-04-15T12:57:35.572Z,97490.47
2023-04-15T13:00:08.283Z,97482.72
2023-04-15T13:02:38.882Z,97491.88
2023-04-15T13:05:10.729Z,97489.19
2023-04-15T13:07:41.169Z,97475.63
2023-04-15T13:10:13.124Z,97470.47
2023-04-15T13:12:47.024Z,97470.25
2023-04-15T13:15:20.814Z,97467.03
2023-04-15T13:17:51.375Z,97478.38
2023-04-15T13:20:22.384Z,97480.84
2023-04-15T13:22:52.739Z,97491.84
2023-04-15T13:25:23.595Z,97502.06
2023-04-15T13:27:57.873Z,97496.25
2023-04-15T13:30:28.301Z,97499.94
2023-04-15T13:32:58.823Z,97507.50
2023-04-15T13:35:29.284Z,97510.09
2023-04-15T13:37:59.797Z,97520.03
2023-04-15T13:40:30.580Z,97520.25
2023-04-15T13:43:04.435Z,97526.84
2023-04-15T13:45:35.241Z,97513.50
2023-04-15T13:48:05.750Z,97524.25
2023-04-15T13:50:36.302Z,97516.34
2023-04-15T13:53:06.689Z,97526.31
2023-04-15T13:55:39.122Z,97517.44
2023-04-15T13:58:12.329Z,97519.09
2023-04-15T14:00:42.685Z,97526.16
2023-04-15T14:03:13.188Z,97521.88
2023-04-15T14:05:43.721Z,97516.47
2023-04-15T14:08:14.063Z,97518.53
2023-04-15T14:10:48.599Z,97516.06
2023-04-15T14:13:21.962Z,97527.25
2023-04-15T14:15:52.357Z,97538.88
2023-04-15T14:18:22.996Z,97536.16
2023-04-15T14:20:53.528Z,97546.06
2023-04-15T14:23:24.041Z,97551.91
2023-04-15T14:25:54.635Z,97549.22
2023-04-15T14:28:27.966Z,97551.50
2023-04-15T14:30:58.433Z,97547.38
2023-04-15T14:33:29.010Z,97547.88
2023-04-15T14:36:00.012Z,97555.84
2023-04-15T14:38:30.722Z,97570.13
2023-04-15T14:41:02.153Z,97565.69
2023-04-15T14:43:35.255Z,97583.69
2023-04-15T14:46:05.967Z,97572.41
2023-04-15T14:48:36.513Z,97592.28
2023-04-15T14:51:06.921Z,97589.19
2023-04-15T14:53:37.327Z,97604.72
2023-04-15T14:56:08.589Z,97596.63
2023-04-15T14:58:41.547Z,97596.63
2023-04-15T15:01:12.936Z,97606.25
2023-04-15T15:03:43.827Z,97607.19
2023-04-15T15:06:14.397Z,97609.88
2023-04-15T15:08:44.744Z,97617.00
2023-04-15T15:11:15.149Z,97619.25
2023-04-15T15:13:48.113Z,97626.19
2023-04-15T15:16:18.592Z,97627.84
2023-04-15T15:18:48.978Z,97619.03
2023-04-15T15:21:19.411Z,97631.41
2023-04-15T15:23:49.900Z,97639.91
2023-04-15T15:26:20.556Z,97633.19
2023-04-15T15:28:53.703Z,97639.38
2023-04-15T15:31:24.087Z,97650.53
2023-04-15T15:33:54.496Z,97653.03
2023-04-15T15:36:24.878Z,97654.03
2023-04-15T15:38:55.625Z,97647.34
2023-04-15T15:41:26.209Z,97649.94
2023-04-15T15:43:59.280Z,97649.38
2023-04-15T15:46:31.578Z,97653.41
2023-04-15T15:49:02.594Z,97655.09
2023-04-15T15:51:33.415Z,97662.63
2023-04-15T15:54:03.989Z,97661.47
2023-04-15T15:56:35.195Z,97678.53
2023-04-15T15:59:08.267Z,97685.19
2023-04-15T16:01:38.801Z,97689.28
2023-04-15T16:04:10.504Z,97691.16
2023-04-15T16:06:41.379Z,97707.84
2023-04-15T16:09:11.833Z,97697.44
2023-04-15T16:11:42.637Z,97709.91
2023-04-15T16:14:15.815Z,97710.59
2023-04-15T16:16:46.283Z,97720.44
2023-04-15T16:19:16.640Z,97713.53
2023-04-15T16:21:47.488Z,97722.38
2023-04-15T16:24:17.975Z,97718.63
2023-04-15T16:26:48.504Z,97724.97
2023-04-15T16:29:21.443Z,97730.94
2023-04-15T16:31:54.985Z,97729.19
2023-04-15T16:34:25.518Z,97740.44
2023-04-15T16:36:56.308Z,97742.28
2023-04-15T16:39:27.357Z,97750.94
2023-04-15T16:41:58.104Z,97757.13
2023-04-15T16:44:31.199Z,97753.69
2023-04-15T16:47:02.398Z,97757.56
2023-04-15T16:49:35.049Z,97757.63
2023-04-15T16:52:05.453Z,97769.16
2023-04-15T16:54:40.757Z,97767.50
2023-04-15T16:57:11.228Z,97771.56
2023-04-15T16:59:44.170Z,97772.84
2023-04-15T17:02:17.682Z,97787.94
2023-04-15T17:04:48.151Z,97792.38
2023-04-15T17:07:18.535Z,97795.50
2023-04-15T17:09:48.894Z,97795.41
2023-04-15T17:12:19.349Z,97798.81
2023-04-15T17:14:52.505Z,97805.06
2023-04-15T17:17:23.082Z,97814.63
2023-04-15T17:19:53.697Z,97812.31
2023-04-15T17:22:24.260Z,97810.34
2023-04-15T17:24:54.914Z,97822.13
2023-04-15T17:27:27.734Z,97821.47
2023-04-15T17:30:01.512Z,97822.81
2023-04-15T17:32:51.960Z,97826.47
2023-04-15T17:35:42.684Z,97834.22
2023-04-15T17:38:33.173Z,97833.72
2023-04-15T17:41:23.525Z,97833.72
2023-04-15T17:44:13.781Z,97840.22
2023-04-15T17:47:06.848Z,97853.75
2023-04-15T17:49:57.265Z,97868.22
2023-04-15T17:52:48.558Z,97857.22
2023-04-15T17:55:39.744Z,97861.72
2023-04-15T17:58:30.285Z,97862.13
2023-04-15T18:01:22.509Z,97858.00
2023-04-15T18:04:16.001Z,97863.47
2023-04-15T18:07:07.629Z,97867.97
2023-04-15T18:10:00.640Z,97870.88
2023-04-15T18:12:51.191Z,97873.88
2023-04-15T18:15:41.637Z,97879.84
2023-04-15T18:18:32.105Z,97885.47
2023-04-15T18:21:06.468Z,97884.38
2023-04-15T18:23:37.027Z,97884.16
2023-04-15T18:26:07.512Z,97891.63
2023-04-15T18:28:38.081Z,97895.34
2023-04-15T18:31:09.001Z,97899.25
2023-04-15T18:33:39.555Z,97894.88
2023-04-15T18:36:13.201Z,97905.47
2023-04-15T18:38:43.926Z,97901.50
2023-04-15T18:41:14.287Z,97911.16
2023-04-15T18:43:44.685Z,97921.03
2023-04-15T18:46:15.151Z,97914.78
2023-04-15T18:48:45.710Z,97925.84
2023-04-15T18:51:18.666Z,97930.88
2023-04-15T18:53:49.323Z,97932.09
2023-04-15T18:56:19.738Z,97934.75
2023-04-15T18:59:27.855Z,97940.16
2023-04-15T19:01:40.861Z,97944.16
2023-04-15T19:04:11.825Z,97946.78
2023-04-15T19:06:44.863Z,97956.38
2023-04-15T19:09:15.472Z,97952.38
2023-04-15T19:11:46.483Z,97960.31
2023-04-15T19:14:16.989Z,97956.91
2023-04-15T19:16:47.502Z,97960.81
2023-04-15T19:19:18.094Z,97969.44
2023-04-15T19:21:51.155Z,97966.19
2023-04-15T19:24:22.486Z,97961.19
2023-04-15T19:26:53.322Z,97973.13
2023-04-15T19:29:23.722Z,97968.56
2023-04-15T19:31:54.464Z,97978.16
2023-04-15T19:34:25.191Z,97977.34
2023-04-15T19:36:59.334Z,97984.13
2023-04-15T19:39:30.062Z,97979.22
2023-04-15T19:42:00.448Z,97980.00
2023-04-15T19:44:30.783Z,97986.00
2023-04-15T19:47:01.146Z,97977.13
2023-04-15T19:49:31.571Z,97984.81
2023-04-15T19:52:04.530Z,97993.72
2023-04-15T19:54:35.323Z,97992.28
2023-04-15T19:57:05.690Z,97988.81
2023-04-15T19:59:36.134Z,97993.03
2023-04-15T20:02:06.942Z,97992.19
2023-04-15T20:04:37.484Z,97991.25
2023-04-15T20:07:10.769Z,97994.78
2023-04-15T20:09:41.118Z,97995.59
2023-04-15T20:12:50.271Z,97989.63
2023-04-15T20:15:01.857Z,98001.75
2023-04-15T20:17:35.910Z,97989.94
2023-04-15T20:20:08.236Z,98001.25
2023-04-15T20:22:41.281Z,97987.63
2023-04-15T20:25:12.748Z,97991.13
2023-04-15T20:27:43.241Z,97996.25
2023-04-15T20:30:14.601Z,97994.59
2023-04-15T20:32:45.155Z,97996.13
2023-04-15T20:35:15.714Z,97997.91
2023-04-15T20:37:49.474Z,97994.44
2023-04-15T20:40:20.383Z,97996.25
2023-04-15T20:42:51.113Z,97993.22
2023-04-15T20:45:21.657Z,97993.47
2023-04-15T20:47:52.030Z,97991.81
2023-04-15T20:50:22.571Z,97998.81
2023-04-15T20:52:55.574Z,97990.28
2023-04-15T20:55:26.292Z,97997.06
2023-04-15T20:57:57.110Z,98004.88
2023-04-15T21:00:27.607Z,98005.22
2023-04-15T21:02:58.266Z,98014.31
2023-04-15T21:05:28.890Z,98012.91
2023-04-15T21:08:01.806Z,98013.13
2023-04-15T21:10:35.453Z,98014.84
2023-04-15T21:13:06.922Z,98021.09
2023-04-15T21:15:38.386Z,98024.69
2023-04-15T21:18:08.974Z,98022.94
2023-04-15T21:20:39.482Z,98022.16
2023-04-15T21:23:13.123Z,98031.47
2023-04-15T21:25:43.588Z,98035.66
2023-04-15T21:28:13.967Z,98029.63
2023-04-15T21:30:45.905Z,98036.56
2023-04-15T21:33:16.530Z,98040.03
2023-04-15T21:35:46.867Z,98041.56
2023-04-15T21:38:21.322Z,98046.69
2023-04-15T21:40:53.580Z,98050.16
2023-04-15T21:43:25.825Z,98047.59
2023-04-15T21:46:21.125Z,98052.72
2023-04-15T21:48:48.957Z,98050.94
2023-04-15T21:51:19.517Z,98053.66
2023-04-15T21:53:52.827Z,98051.13
2023-04-15T21:56:24.493Z,98060.50
2023-04-15T21:58:59.325Z,98056.09
2023-04-15T22:01:30.062Z,98063.84
2023-04-15T22:04:00.898Z,98064.03
2023-04-15T22:06:31.885Z,98065.91
2023-04-15T22:09:05.197Z,98063.25
2023-04-15T22:11:35.961Z,98066.59
2023-04-15T22:14:06.679Z,98058.91
2023-04-15T22:16:37.133Z,98075.22
2023-04-15T22:19:07.951Z,98074.38
2023-04-15T22:21:38.711Z,98077.91
2023-04-15T22:24:31.611Z,98082.03
2023-04-15T22:27:02.381Z,98087.22
2023-04-15T22:29:33.103Z,98090.84
2023-04-15T22:32:03.732Z,98093.25
2023-04-15T22:34:34.189Z,98085.63
2023-04-15T22:37:04.587Z,98089.09
2023-04-15T22:39:37.715Z,98085.63
2023-04-15T22:42:08.079Z,98099.38
2023-04-15T22:44:38.543Z,98100.25
2023-04-15T22:47:09.120Z,98098.53
2023-04-15T22:49:39.913Z,98107.78
2023-04-15T22:52:12.432Z,98104.50
2023-04-15T22:54:53.510Z,98112.25
2023-04-15T22:57:23.975Z,98106.22
2023-04-15T22:59:54.322Z,98108.97
2023-04-15T23:02:24.940Z,98114.88
2023-04-15T23:04:55.588Z,98115.00
2023-04-15T23:07:26.144Z,98112.31
2023-04-15T23:10:01.229Z,98111.69
2023-04-15T23:12:31.679Z,98120.09
2023-04-15T23:15:02.250Z,98118.41
2023-04-15T23:17:32.710Z,98114.31
2023-04-15T23:20:03.235Z,98115.09
2023-04-15T23:22:37.570Z,98112.44
2023-04-15T23:25:12.250Z,98123.50
2023-04-15T23:27:42.606Z,98126.91
2023-04-15T23:30:13.578Z,98131.97
2023-04-15T23:32:44.085Z,98129.59
2023-04-15T23:35:14.592Z,98132.06
2023-04-15T23:37:44.936Z,98123.63
2023-04-15T23:40:18.553Z,98136.47
2023-04-15T23:42:49.085Z,98132.22
2023-04-15T23:45:19.545Z,98126.13
2023-04-15T23:47:49.880Z,98127.81
2023-04-15T23:50:20.655Z,98129.50
2023-04-15T23:52:51.019Z,98141.63
2023-04-15T23:55:24.371Z,98134.00
2023-04-15T23:57:54.669Z,98146.94
